Riverside, CA (92509)

10:58 AM PDT on July 06, 2015 (GMT -0700)
Indian Hills | | Change Station
CLOSE
Current Station
Personal Weather Station
Location: Riverside, CA
Elevation: 1070 ft
Nearby Weather Stations

Elev 1070 ft 33.99 °N, 117.45 °W | Updated 3 minutes ago

Overcast
Overcast
68.3 °F
Feels Like 68.3 °F
N
6.0
Wind Variable Wind from NW
Gusts 9.0 mph

Today
High -- | Low -- °F
--% Chance of Precip.
Yesterday
High -- | Low -- °F
Precip. -- in
5:44 AM 8:04 PM
Waning Gibbous, 73% visible
Pressure 30.02 in
Visibility 7.0 miles
Clouds Mostly Cloudy 1800 ft
Dew Point 61 °F
Humidity 77%
Rainfall 0.00 in
Snow Depth Not available.
UV 5 out of 12
Pollen 3.10 out of 12
Air Quality Not available.
Flu Activity Not available.
METAR KRAL 061753Z 21003KT 7SM BKN018 22/16 A3006 RMK AO2 SLP165 T02170156 10217 20183 50002 $

More Conditions Fewer Conditions

Pressure 30.02 in
Visibility 7.0 miles
Clouds Mostly Cloudy 1800 ft
Dew Point 61 °F
Humidity 77%
Rainfall 0.00 in
Snow Depth Not available.
UV 5 out of 12
Pollen 3.10 out of 12
Air Quality Not available.
Flu Activity Not available.
METAR KRAL 061753Z 21003KT 7SM BKN018 22/16 A3006 RMK AO2 SLP165 T02170156 10217 20183 50002 $

More Conditions Fewer Conditions

10-Day Weather Forecast

×

Almanac

Astronomy

Jul. 06, 2015 Rise Set
Actual Time
Civil Twilight
Nautical Twilight
Astronomical Twilight
Moon
Length of Visible Light
Length of Day
Tomorrow will be .
, % of the Moon is Illuminated

Today's Extremes

State Highs State Lows

Community

WunderPhotos

Upload Photos

1,835,607 photos uploaded!

WunderBlogs® & News

Nearby

Air Quality

  Air Quality AQ Index Pollutant
Not available.

Snow Depth

Station Depth Elevation

Earthquake Activity

City Distance Mag. Time & Date
Minimum magnitude displayed is 2.5.

Coastal Water Temperatures

Place Temperature

Stations

Nearby Weather Stations

Station Location Temp. Windchill Dew Point Humidity Wind Precip. Elev Updated Type